Rohrersville, Maryland
Current Conditions -  °F | °C
As of 11:10 PM on Wednesday 26 Nov 2014 (Local Time) from KFDK Reporting Station
Overcast Overcast  
Wind Chill: 36°   Ceiling: 1900
Heat Index: 36°   Visibility: 10mi
Dew Point: 32°   Wind: 3mph
Humidity: 87%   Direction: 270°W
Pressure: 30.03"   Gusts: NA
Location:  39.43°N, 77.66°W
Report Text: KFDK 270410Z AUTO 27003KT 10SM BKN019 OVC060 02/00 A3003 RMK AO2
Loading
Personal Weather Stations






























Interactive Weather Map New forecast layout! Learn more

10-Day Weather Forecast

Advertisements
Track Severe Weather on mobile